Airfield :
LOGIN :

Register | Disclaimer

   EN    FR    IT 

 










Legend :    VFR   Marginal VFR   IFR   Intensive IFR   Very Intensive IFR
Visi :
Ceiling :
>= 8 km
>= 3000ft
5 to 8 km
1000 to 3000 ft
1500m to 5 km
500 to 1000 ft
800 to 1500m
200 to 500 ft
< 800m
< 200 ft
Symbols :   Thunderstorms  Fog  Heavy snow  Heavy precipitations  Wind > 20 kt
SIGMETs :     Misc.  Thunderstorms  Icing  Turbulence  Mountain Waves  Volcanic Ashes







- Airport Elevation : 364 ft
- IATA code : FRA


EDDF - Frankfurt Int.

CURRENT METAR :
  • 202350Z 05010KT CAVOK 02/M00 Q1011 NOSIG

EXPIRED METARs :
  • 202320Z 05009KT CAVOK 02/M00 Q1011 NOSIG
  • 202250Z 05011KT 9999 FEW020 03/M00 Q1011 NOSIG
  • 202220Z 05008KT 9999 SCT020 02/M00 Q1011 NOSIG
  • 202150Z 06008KT 9999 BKN021 03/00 Q1011 NOSIG
  • 202120Z 07008KT 9999 FEW021 03/M00 Q1010 NOSIG
  • 202050Z 07009KT CAVOK 03/M00 Q1010 NOSIG

TAF TAF EDDF
Valid from the 21 at 00:00 until the 22 at 06:00 UTC


202300Z 2100/2206 05008KT 9999 SCT020
TEMPO 2108/2206 BKN020
No reported NOTAMs for that airfield.



MET'MAP, your aeronautical weather chart ! - Copyright ORBIFLY December 2007 - Disclaimer

ORBIFLY MET'MAP TEAM :

Programming & Development : Alexandra Zaïnal
Concept & Development : Baudouin d'Aumeries
Co-Development & Prog : Marc-Olivier Méhu
Technical & hardware support : Manuel Goepfert

Contact : metmap@orbifly.com




SOURCES & CREDITS :

   NOAA